Latest Weather Observations for Casterton

IDV60801

Issued at 8:52 am EST Thursday 1 October 2020 (issued every 10 minutes, with the page automatically refreshed every 10 minutes)

About weather observations | Map of weather stations | Latest weather observations for VIC | Other Formats
Station Details ID: 090182 Name: CASTERTON Lat: -37.58 Lon: 141.33 Height: 130.6 m
Data from the previous 72 hours. | See also: Recent months at Casterton
Date/Time
EST
Temp
°C
App
Temp
°C
Dew
Point
°C
Rel
Hum
%
Delta-T
°C
Wind Press
QNH
hPa
Press
MSL
hPa
Rain since
9am
mm
Dir  Spd
km/h
Gust
km/h
Spd
kts
Gust
kts
01/08:30am 10.4 8.0 10.2 99 0.1 NNW 13 17 7 9 1015.8 1015.9 2.6
01/08:00am 8.9 6.2 8.8 99 0.0 NW 13 17 7 9 1016.0 1016.1 2.6
01/07:30am 7.2 4.4 7.1 99 0.0 NNW 11 15 6 8 1015.6 1015.7 2.6
01/07:00am 5.4 3.0 5.3 99 0.0 NNW 7 9 4 5 1015.2 1015.3 2.6
01/06:30am 4.2 2.1 4.1 99 0.0 N 4 7 2 4 1014.8 1014.9 2.6
01/06:00am 4.1 1.6 4.0 99 0.0 NNW 6 9 3 5 1014.5 1014.6 2.6
01/05:30am 4.9 2.0 4.8 99 0.0 NW 9 11 5 6 1014.2 1014.3 2.6
01/05:00am 4.8 1.5 4.7 99 0.0 WNW 11 11 6 6 1013.9 1014.0 2.4
01/04:30am 5.0 1.8 4.9 99 0.0 NW 11 13 6 7 1013.6 1013.7 2.4
01/04:00am 5.4 2.6 5.3 99 0.0 NW 9 11 5 6 1013.4 1013.5 2.4
01/03:30am 6.3 3.7 6.2 99 0.0 WNW 9 13 5 7 1013.2 1013.3 2.4
01/03:00am 6.7 3.4 6.6 99 0.0 WNW 13 17 7 9 1013.2 1013.3 2.4
01/02:30am 7.0 3.8 6.9 99 0.0 WNW 13 17 7 9 1013.0 1013.1 2.4
01/02:00am 7.4 3.9 7.3 99 0.0 WNW 15 20 8 11 1013.2 1013.3 2.4
01/01:30am 6.5 3.2 6.4 99 0.0 NW 13 15 7 8 1013.0 1013.1 2.4
01/01:00am 6.2 2.5 6.1 99 0.0 NW 15 17 8 9 1012.9 1013.0 2.4
01/12:30am 6.7 3.4 6.6 99 0.0 NW 13 17 7 9 1012.7 1012.7 2.4
01/12:00am 8.3 5.0 8.2 99 0.0 WNW 15 20 8 11 1012.7 1012.7 2.4
 
Date/Time
EST
Temp
°C
App
Temp
°C
Dew
Point
°C
Rel
Hum
%
Delta-T
°C
Wind Press
QNH
hPa
Press
MSL
hPa
Rain since
9am
mm
Dir  Spd
km/h
Gust
km/h
Spd
kts
Gust
kts
30/11:30pm 8.4 5.2 8.3 99 0.0 NW 15 26 8 14 1012.6 1012.6 2.0
30/11:00pm 7.7 4.7 7.6 99 0.0 NW 13 15 7 8 1012.3 1012.3 1.8
30/10:30pm 8.1 5.2 8.0 99 0.0 WNW 13 15 7 8 1012.2 1012.2 1.8
30/10:00pm 8.9 5.8 8.8 99 0.0 WNW 15 20 8 11 1012.0 1012.0 1.8
30/09:30pm 9.7 6.4 9.6 99 0.1 WNW 17 24 9 13 1011.7 1011.8 1.8
30/09:00pm 9.4 6.8 9.3 99 0.0 WNW 13 17 7 9 1011.3 1011.4 1.8
30/08:30pm 9.9 7.4 9.8 99 0.1 WNW 13 19 7 10 1011.0 1011.1 1.8
30/08:00pm 9.8 7.3 9.7 99 0.1 WNW 13 17 7 9 1010.5 1010.6 1.8
30/07:30pm 10.3 7.1 10.1 99 0.1 W 17 22 9 12 1009.9 1010.0 1.8
30/07:00pm 10.7 8.0 10.5 99 0.1 W 15 22 8 12 1009.4 1009.5 1.8
30/06:30pm 11.1 8.2 10.9 99 0.1 W 17 22 9 12 1008.9 1009.0 1.8
30/06:00pm 11.8 8.1 11.6 99 0.1 W 22 32 12 17 1008.4 1008.5 1.8
30/05:30pm 12.6 10.1 12.4 99 0.1 WNW 17 26 9 14 1007.6 1007.7 1.6
30/05:00pm 12.4 9.9 12.2 99 0.1 WNW 17 22 9 12 1007.2 1007.3 1.6
30/04:30pm 11.8 8.1 11.6 99 0.1 WNW 22 35 12 19 1007.2 1007.3 1.6
30/04:00pm 12.5 9.6 12.3 99 0.1 NW 19 30 10 16 1007.0 1007.1 1.0
30/03:30pm 13.4 8.9 12.5 94 0.5 NW 28 37 15 20 1006.9 1007.0 0.6
30/03:00pm 14.5 11.5 12.5 88 1.1 NW 20 32 11 17 1006.9 1007.0 0.6
30/02:30pm 14.5 11.4 12.2 86 1.3 NW 20 30 11 16 1007.1 1007.2 0.6
30/02:00pm 14.6 10.0 12.3 86 1.3 NW 28 39 15 21 1007.4 1007.5 0.6
30/01:30pm 14.6 11.2 12.6 88 1.1 WNW 22 33 12 18 1007.6 1007.7 0.6
30/01:00pm 13.5 9.9 12.9 96 0.3 WNW 24 41 13 22 1007.7 1007.8 0.6
30/12:30pm 13.4 9.1 13.2 99 0.1 NW 28 39 15 21 1007.8 1007.9 0.6
30/12:00pm 12.6 7.7 12.4 99 0.1 WNW 30 50 16 27 1007.9 1008.0 0.6
30/11:48am 13.2 8.8 13.0 99 0.1 WNW 28 52 15 28 1007.7 1007.8 0.6
30/11:30am 14.0 10.3 13.8 99 0.1 WNW 26 33 14 18 1007.7 1007.8 0.6
30/11:00am 14.2 11.7 14.0 99 0.1 NNW 20 28 11 15 1008.0 1008.1 0.2
30/10:30am 14.0 11.4 13.8 99 0.1 NNW 20 26 11 14 1008.4 1008.5 0.0
30/10:00am 13.6 10.5 13.4 99 0.1 NNW 22 32 12 17 1008.6 1008.7 0.0
30/09:30am 13.5 10.4 13.3 99 0.1 NNW 22 33 12 18 1008.9 1009.0 0.0
30/09:00am 13.5 10.4 13.3 99 0.1 N 22 33 12 18 1009.1 1009.2 0.2
30/08:30am 12.5 9.5 12.5 100 0.0 NNW 20 24 11 13 1009.3 1009.4 0.2
30/08:00am 12.4 9.5 12.2 99 0.1 NNW 19 26 10 14 1009.3 1009.4 0.2
30/07:30am 12.1 9.1 11.9 99 0.1 NNW 19 26 10 14 1009.2 1009.3 0.2
30/07:00am 11.9 9.6 11.7 99 0.1 N 15 24 8 13 1009.2 1009.3 0.2
30/06:30am 11.6 9.6 11.4 99 0.1 N 13 17 7 9 1009.2 1009.3 0.2
30/06:00am 11.2 9.1 11.0 99 0.1 N 13 19 7 10 1009.1 1009.2 0.2
30/05:30am 11.1 8.9 10.9 99 0.1 NNE 13 19 7 10 1009.0 1009.1 0.2
30/05:00am 11.5 9.8 11.3 99 0.1 N 11 17 6 9 1009.2 1009.3 0.2
30/04:30am 12.1 10.6 11.9 99 0.1 N 11 15 6 8 1009.3 1009.4 0.2
30/04:00am 12.0 10.1 11.8 99 0.1 N 13 19 7 10 1009.6 1009.7 0.2
30/03:30am 12.0 9.7 11.8 99 0.1 N 15 22 8 12 1009.8 1009.9 0.2
30/03:00am 12.3 10.9 12.1 99 0.1 N 11 15 6 8 1010.2 1010.3 0.2
30/02:30am 11.9 10.7 11.7 99 0.1 N 9 13 5 7 1010.5 1010.6 0.2
30/02:00am 11.8 10.6 11.6 99 0.1 NNW 9 11 5 6 1011.1 1011.2 0.2
30/01:30am 11.9 10.3 11.7 99 0.1 NNW 11 15 6 8 1011.5 1011.6 0.2
30/01:00am 12.1 11.0 11.9 99 0.1 NNW 9 13 5 7 1012.1 1012.1 0.2
30/12:30am 12.3 11.6 12.1 99 0.1 N 7 9 4 5 1012.1 1012.1 0.2
30/12:00am 12.0 11.2 11.8 99 0.1 N 7 9 4 5 1012.3 1012.3 0.2
 
Date/Time
EST
Temp
°C
App
Temp
°C
Dew
Point
°C
Rel
Hum
%
Delta-T
°C
Wind Press
QNH
hPa
Press
MSL
hPa
Rain since
9am
mm
Dir  Spd
km/h
Gust
km/h
Spd
kts
Gust
kts
29/11:30pm 12.5 11.3 11.7 95 0.4 N 9 11 5 6 1012.5 1012.5 0.2
29/11:00pm 12.6 10.5 11.3 92 0.7 NW 13 19 7 10 1012.8 1012.8 0.2
29/10:30pm 12.8 11.1 11.2 90 0.8 N 11 17 6 9 1013.1 1013.2 0.2
29/10:00pm 13.3 11.2 11.0 86 1.2 NW 13 19 7 10 1013.2 1013.3 0.2
29/09:30pm 14.3 11.7 10.7 79 1.9 NNW 15 22 8 12 1013.5 1013.6 0.2
29/09:00pm 14.5 13.0 10.7 78 2.0 WNW 9 13 5 7 1013.9 1014.0 0.2
29/08:30pm 15.2 13.1 11.0 76 2.2 WNW 13 19 7 10 1013.7 1013.8 0.2
29/08:00pm 13.9 14.3 11.1 83 1.5 CALM 0 0 0 0 1013.3 1013.4 0.2
29/07:30pm 14.1 13.3 11.6 85 1.3 NE 7 9 4 5 1013.3 1013.4 0.2
29/07:00pm 15.1 14.1 10.9 76 2.2 NNE 7 7 4 4 1013.2 1013.3 0.2
29/06:30pm 15.6 14.7 11.2 75 2.4 NNE 7 11 4 6 1013.2 1013.3 0.2
29/06:00pm 16.9 15.1 11.0 68 3.2 NNE 11 13 6 7 1013.1 1013.2 0.2
29/05:30pm 17.1 14.6 11.2 68 3.2 NNE 15 20 8 11 1013.0 1013.1 0.2
29/05:00pm 18.0 15.7 10.6 62 4.0 N 13 20 7 11 1013.2 1013.3 0.2
29/04:30pm 18.3 15.4 10.9 62 4.0 N 17 28 9 15 1013.4 1013.5 0.2
29/04:00pm 18.1 14.8 11.0 63 3.9 NNE 19 30 10 16 1013.5 1013.6 0.2
29/03:30pm 17.8 13.7 10.2 61 4.1 NNE 22 33 12 18 1013.8 1013.9 0.2
29/03:00pm 18.0 15.3 11.6 66 3.5 NNE 17 26 9 14 1014.3 1014.4 0.2
29/02:30pm 17.6 13.1 10.2 62 4.0 NNE 24 37 13 20 1014.5 1014.6 0.2
29/02:00pm 17.6 12.0 10.0 61 4.0 NNE 30 43 16 23 1015.2 1015.3 0.2
29/01:30pm 17.4 12.2 10.3 63 3.8 NNE 28 44 15 24 1016.0 1016.1 0.0
29/01:00pm 17.2 12.6 9.6 61 4.0 NNE 24 37 13 20 1016.6 1016.7 0.0
29/12:30pm 16.6 11.5 10.7 68 3.2 NNE 28 44 15 24 1017.0 1017.1 0.0
29/12:00pm 15.9 11.0 10.0 68 3.1 NNE 26 37 14 20 1017.4 1017.5 0.0
29/11:30am 15.9 11.6 10.7 71 2.8 N 24 35 13 19 1018.2 1018.3 0.0
29/11:00am 15.4 11.1 9.5 68 3.1 NNE 22 39 12 21 1018.5 1018.6 0.0
29/10:30am 15.0 10.0 9.6 70 2.8 NNE 26 35 14 19 1018.5 1018.6 0.0
29/10:00am 14.3 10.1 9.7 74 2.4 NNE 22 30 12 16 1019.1 1019.2 0.0
29/09:30am 13.0 9.0 8.9 76 2.1 NNE 20 32 11 17 1019.9 1020.0 0.0
29/09:00am 12.2 8.3 8.5 78 1.8 NNE 19 32 10 17 1020.2 1020.3 0.0
29/08:30am 11.0 6.8 7.5 79 1.7 NNE 19 24 10 13 1020.1 1020.2 0.0
29/08:00am 10.1 6.2 7.3 83 1.3 NE 17 22 9 12 1020.2 1020.3 0.0
29/07:30am 9.7 5.8 7.1 84 1.2 NE 17 24 9 13 1020.2 1020.3 0.0
29/07:00am 8.9 5.3 6.9 87 0.9 NE 15 20 8 11 1020.2 1020.3 0.0
29/06:30am 8.3 3.9 6.4 88 0.9 NE 19 28 10 15 1020.3 1020.4 0.0
29/06:00am 6.5 3.5 6.1 97 0.2 NE 11 17 6 9 1020.4 1020.5 0.0
29/05:30am 5.8 2.4 5.7 99 0.0 NE 13 17 7 9 1020.5 1020.6 0.0
29/05:00am 4.8 1.5 4.7 99 0.0 NE 11 13 6 7 1020.4 1020.5 0.0
29/04:30am 4.8 1.9 4.7 99 0.0 ENE 9 13 5 7 1020.4 1020.5 0.0
29/04:00am 5.0 2.5 4.9 99 0.0 ENE 7 11 4 6 1020.6 1020.7 0.0
29/03:30am 5.4 2.6 5.3 99 0.0 ENE 9 13 5 7 1020.7 1020.8 0.0
29/03:00am 5.6 2.9 5.5 99 0.0 ENE 9 13 5 7 1020.5 1020.6 0.0
29/02:30am 6.1 2.7 6.0 99 0.0 E 13 17 7 9 1020.9 1021.0 0.0
29/02:00am 6.2 2.5 6.1 99 0.0 E 15 17 8 9 1021.3 1021.4 0.0
29/01:30am 6.1 2.3 6.0 99 0.0 E 15 20 8 11 1021.5 1021.6 0.0
29/01:00am 6.2 2.5 6.1 99 0.0 E 15 19 8 10 1021.8 1021.9 0.0
29/12:30am 6.3 3.0 6.2 99 0.0 E 13 17 7 9 1022.4 1022.5 0.0
29/12:00am 6.7 3.4 6.6 99 0.0 E 13 19 7 10 1022.7 1022.8 0.0
 
Date/Time
EST
Temp
°C
App
Temp
°C
Dew
Point
°C
Rel
Hum
%
Delta-T
°C
Wind Press
QNH
hPa
Press
MSL
hPa
Rain since
9am
mm
Dir  Spd
km/h
Gust
km/h
Spd
kts
Gust
kts
28/11:30pm 7.0 3.1 6.9 99 0.0 E 17 22 9 12 1023.1 1023.2 0.0
28/11:00pm 6.9 4.1 6.8 99 0.0 E 11 15 6 8 1023.5 1023.6 0.0
28/10:30pm 7.1 4.3 7.0 99 0.0 E 11 15 6 8 1023.7 1023.8 0.0
28/10:00pm 7.6 4.9 7.5 99 0.0 ESE 11 15 6 8 1023.8 1023.9 0.0
28/09:30pm 8.0 6.2 7.9 99 0.0 E 7 13 4 7 1024.2 1024.3 0.0
28/09:00pm 8.5 6.8 8.4 99 0.0 ESE 7 9 4 5 1024.4 1024.5 0.0
28/08:30pm 9.0 7.3 8.4 96 0.3 ENE 7 9 4 5 1024.0 1024.1 0.0
28/08:00pm 9.5 7.0 8.3 92 0.6 ESE 11 13 6 7 1023.8 1023.9 0.0
28/07:30pm 10.8 7.7 8.9 88 0.9 ESE 15 19 8 10 1023.5 1023.6 0.0
28/07:00pm 10.7 7.8 8.3 85 1.2 ESE 13 15 7 8 1023.3 1023.4 0.0
28/06:30pm 12.0 10.0 8.7 80 1.7 E 9 11 5 6 1023.4 1023.5 0.0
28/06:00pm 13.4 10.7 9.1 75 2.2 ESE 13 19 7 10 1023.4 1023.5 0.0
28/05:30pm 14.1 11.4 9.1 72 2.6 ESE 13 17 7 9 1023.5 1023.6 0.0
28/05:00pm 14.6 12.1 9.8 73 2.5 E 13 19 7 10 1023.7 1023.8 0.0
28/04:30pm 14.8 12.7 9.6 71 2.7 SE 11 15 6 8 1023.8 1023.9 0.0
28/04:00pm 15.1 12.8 10.5 74 2.4 ESE 13 20 7 11 1023.7 1023.8 0.0
28/03:30pm 14.9 12.8 9.7 71 2.7 ENE 11 17 6 9 1023.9 1024.0 0.0
28/03:00pm 14.9 12.4 9.7 71 2.7 E 13 20 7 11 1024.4 1024.5 0.0
28/02:30pm 14.7 12.0 9.1 69 2.9 ENE 13 19 7 10 1024.8 1024.9 0.0
28/02:00pm 14.6 12.4 9.4 71 2.7 ESE 11 17 6 9 1025.3 1025.4 0.0
28/01:30pm 14.4 12.2 9.2 71 2.7 ENE 11 17 6 9 1025.6 1025.7 0.0
28/01:00pm 14.1 12.7 8.9 71 2.6 ESE 6 9 3 5 1026.0 1026.2 0.0
28/12:30pm 14.1 12.8 9.1 72 2.6 NE 6 13 3 7 1026.5 1026.7 0.0
28/12:00pm 13.4 11.1 8.9 74 2.3 NE 11 17 6 9 1026.8 1027.0 0.0
28/11:30am 13.3 11.1 8.0 70 2.6 ENE 9 15 5 8 1027.1 1027.3 0.0
28/11:00am 12.4 9.8 7.9 74 2.2 NE 11 17 6 9 1027.6 1027.8 0.0
28/10:30am 12.3 10.0 9.0 80 1.7 E 11 17 6 9 1028.1 1028.2 0.0
28/10:00am 11.3 9.3 8.5 83 1.4 E 9 13 5 7 1028.3 1028.4 0.0
28/09:30am 10.4 8.3 8.3 87 1.0 ENE 9 11 5 6 1028.4 1028.5 0.0
28/09:00am 8.7 6.4 7.3 91 0.7 E 9 11 5 6 1028.4 1028.5 0.0

Other formats

Comma delimited format used in spreadsheet applications
http://www.bom.gov.au/fwo/IDV60801/IDV60801.95825.axf

JavaScript Object Notation format (JSON) in row-major order
http://www.bom.gov.au/fwo/IDV60801/IDV60801.95825.json

Data quality

Most of these data are generated automatically and are frequently updated. Quality checks on data are not normally performed. It is possible for incorrect values to appear. Refer to information at About Latest Weather Observations and please check the disclaimer before using these data.